Terminal Aerodrome Forecast
Issued by NWS Charleston, WV

Current Version | Previous Version | Text Only | Print | Product List | Glossary Off
Versions: 1 2 3 4 5 6 7 8 9 10 11 12 13 14 15 16 17 18 19 20 21 22 23 24 25 26 27 28 29 30

000
FTUS41 KRLX 201500 AAA
TAFEKN
TAF AMD
KEKN 201506Z 2015/2112 VRB03KT P6SM OVC110
     FM201800 28004KT P6SM VCTS BKN035CB
      TEMPO 2019/2021 3SM TS OVC035CB
     FM202100 29005KT P6SM -SHRA OVC035
     FM202200 34004KT P6SM BKN040
     FM210500 VRB03KT 5SM BR BKN040
     FM210800 VRB03KT 3SM BR BKN040
     FM211000 00000KT 1/4SM FG BKN001=

USA.gov is the U.S. government's official web portal to all federal, state and local government web resources and services.